Time;durP1;ratioP1;P1;durP2;ratioP2;P2;SDS_P1;SDS_P2;PMS_P1;PMS_P2;Temp;Humidity;BMP_temperature;BMP_pressure;BME280_temperature;BME280_humidity;BME280_pressure;Samples;Min_cycle;Max_cycle;Signal;HPM_P1;HPM_P2
2023/04/01 00:00:26;;;;;;;19.05;13.70;;;11.10;99.90;;;;;;5043216;28;20766;-79
2023/04/01 00:02:53;;;;;;;22.23;12.98;;;11.10;99.90;;;;;;5056793;28;20735;-79
2023/04/01 00:05:21;;;;;;;16.15;11.00;;;11.10;99.90;;;;;;5050955;28;20226;-79
2023/04/01 00:07:49;;;;;;;16.08;11.85;;;11.10;99.90;;;;;;5052900;28;20265;-80
2023/04/01 00:10:16;;;;;;;20.80;12.68;;;11.10;99.90;;;;;;5067974;28;20211;-78
2023/04/01 00:12:43;;;;;;;19.33;14.25;;;11.10;99.90;;;;;;5063528;28;20251;-78
2023/04/01 00:15:12;;;;;;;22.83;11.85;;;11.20;99.90;;;;;;5054525;28;20237;-79
2023/04/01 00:17:39;;;;;;;15.25;12.98;;;11.10;99.90;;;;;;5055442;28;20237;-80
2023/04/01 00:20:09;;;;;;;21.27;14.73;;;11.10;99.90;;;;;;5042889;28;20231;-79
2023/04/01 00:22:36;;;;;;;21.92;12.73;;;11.10;99.90;;;;;;5056777;28;20231;-80
2023/04/01 00:25:05;;;;;;;16.13;12.63;;;11.10;99.90;;;;;;5061666;28;20263;-81
2023/04/01 00:27:32;;;;;;;21.20;13.73;;;11.10;99.90;;;;;;5048489;28;20215;-79
2023/04/01 00:29:59;;;;;;;23.15;14.70;;;11.10;99.90;;;;;;5043669;28;20763;-83
2023/04/01 00:32:26;;;;;;;20.73;14.05;;;11.10;99.90;;;;;;5034220;28;20207;-80
2023/04/01 00:34:53;;;;;;;18.77;13.10;;;11.00;99.90;;;;;;5035965;28;20221;-80
2023/04/01 00:37:20;;;;;;;29.10;14.18;;;11.00;99.90;;;;;;5057308;28;20452;-80
2023/04/01 00:39:48;;;;;;;15.40;11.98;;;11.00;99.90;;;;;;5061471;28;20200;-78
2023/04/01 00:42:16;;;;;;;21.45;14.43;;;11.00;99.90;;;;;;5047748;28;20275;-81
2023/04/01 00:44:44;;;;;;;20.88;14.05;;;11.00;99.90;;;;;;5050488;28;20256;-81
2023/04/01 00:47:11;;;;;;;18.13;12.65;;;11.00;99.90;;;;;;5053621;28;20236;-82
2023/04/01 00:49:40;;;;;;;16.70;12.20;;;11.00;99.90;;;;;;5051539;28;20230;-79
2023/04/01 00:52:09;;;;;;;16.13;11.75;;;11.00;99.90;;;;;;5042353;28;20210;-82
2023/04/01 00:54:38;;;;;;;20.13;13.57;;;11.00;99.90;;;;;;5048848;28;20207;-80
2023/04/01 00:57:09;;;;;;;17.02;11.73;;;11.10;99.90;;;;;;5040335;28;20267;-79
2023/04/01 00:59:42;;;;;;;20.35;15.02;;;11.00;99.90;;;;;;5043578;28;20217;-81
2023/04/01 01:02:13;;;;;;;18.17;13.98;;;11.10;99.90;;;;;;5046252;28;20230;-80
2023/04/01 01:04:40;;;;;;;23.92;14.95;;;11.10;99.90;;;;;;5042183;28;20222;-81
2023/04/01 01:07:18;;;;;;;23.55;15.63;;;11.10;99.90;;;;;;5049415;28;20234;-81
2023/04/01 01:09:56;;;;;;;23.13;17.35;;;11.20;99.90;;;;;;5051973;28;20311;-81
2023/04/01 01:12:29;;;;;;;19.60;12.75;;;11.10;99.90;;;;;;5045219;28;20285;-80
2023/04/01 01:15:05;;;;;;;16.92;13.52;;;11.10;99.90;;;;;;5046744;28;20251;-80
2023/04/01 01:17:41;;;;;;;19.13;13.20;;;11.10;99.90;;;;;;5062747;28;20290;-79
2023/04/01 01:20:33;;;;;;;20.25;15.18;;;11.10;99.90;;;;;;5048493;28;20210;-80
2023/04/01 01:23:36;;;;;;;15.02;11.60;;;11.10;99.90;;;;;;5042779;28;20202;-79
2023/04/01 01:26:41;;;;;;;16.42;10.27;;;11.10;99.90;;;;;;5009347;28;20220;-80
2023/04/01 01:29:19;;;;;;;17.27;12.57;;;11.20;99.90;;;;;;5057569;28;20211;-81
2023/04/01 01:31:58;;;;;;;15.45;13.48;;;11.10;99.90;;;;;;5053387;28;20221;-83
2023/04/01 01:34:32;;;;;;;15.43;12.00;;;11.20;99.90;;;;;;5039671;28;20198;-80
2023/04/01 01:37:04;;;;;;;20.25;12.80;;;11.10;99.90;;;;;;5046873;28;20277;-79
2023/04/01 01:39:34;;;;;;;19.13;13.70;;;11.10;99.90;;;;;;5055195;28;20673;-81
2023/04/01 01:42:04;;;;;;;15.20;12.15;;;11.10;99.90;;;;;;5059591;28;20626;-80
2023/04/01 01:44:32;;;;;;;14.90;12.05;;;11.10;99.90;;;;;;5037541;28;20202;-78
2023/04/01 01:47:00;;;;;;;17.80;13.20;;;11.10;99.90;;;;;;5058697;28;20244;-80
2023/04/01 01:49:30;;;;;;;16.08;11.88;;;11.10;99.90;;;;;;5039867;28;22171;-78
2023/04/01 01:51:57;;;;;;;15.80;13.57;;;11.10;99.90;;;;;;5060019;28;20193;-80
2023/04/01 01:54:25;;;;;;;16.63;12.82;;;11.10;99.90;;;;;;5049787;28;20204;-80
2023/04/01 01:56:57;;;;;;;14.52;12.68;;;11.10;99.90;;;;;;5058095;28;20207;-80
2023/04/01 01:59:27;;;;;;;16.80;12.25;;;11.10;99.90;;;;;;5039204;28;20743;-80
2023/04/01 02:01:57;;;;;;;18.33;12.85;;;11.10;99.90;;;;;;5053182;28;20204;-80
2023/04/01 02:04:24;;;;;;;15.98;12.45;;;11.10;99.90;;;;;;5042988;28;20219;-79
2023/04/01 02:06:54;;;;;;;16.00;13.57;;;11.10;99.90;;;;;;5055207;28;20202;-81
2023/04/01 02:09:21;;;;;;;16.35;13.13;;;11.00;99.90;;;;;;5042806;28;20202;-79
2023/04/01 02:11:52;;;;;;;18.17;12.45;;;11.10;99.90;;;;;;5046101;28;20227;-82
2023/04/01 02:14:23;;;;;;;15.27;12.88;;;11.00;99.90;;;;;;5046411;28;20693;-80
2023/04/01 02:16:56;;;;;;;19.20;14.38;;;11.10;99.90;;;;;;5044632;28;20200;-79
2023/04/01 02:19:25;;;;;;;18.13;13.73;;;11.10;99.90;;;;;;5035626;28;20205;-80
2023/04/01 02:21:56;;;;;;;17.45;13.93;;;11.10;99.90;;;;;;5041493;28;20201;-80
2023/04/01 02:24:26;;;;;;;16.58;13.15;;;11.10;99.90;;;;;;5038512;28;20297;-80
2023/04/01 02:26:55;;;;;;;19.80;13.30;;;11.10;99.90;;;;;;5036068;28;20226;-82
2023/04/01 02:29:24;;;;;;;17.80;12.80;;;11.10;99.90;;;;;;5050236;28;20206;-81
2023/04/01 02:31:52;;;;;;;13.77;12.38;;;11.10;99.90;;;;;;5039633;28;20230;-81
2023/04/01 02:34:20;;;;;;;20.35;15.05;;;11.10;99.90;;;;;;5048602;28;20218;-79
2023/04/01 02:36:48;;;;;;;17.73;13.00;;;11.10;99.90;;;;;;5047126;28;20214;-80
2023/04/01 02:39:15;;;;;;;19.63;14.13;;;11.10;99.90;;;;;;5038918;28;20271;-81
2023/04/01 02:41:42;;;;;;;17.25;13.52;;;11.10;99.90;;;;;;5039169;28;20293;-80
2023/04/01 02:44:12;;;;;;;12.88;11.13;;;11.10;99.90;;;;;;5048247;28;20651;-79
2023/04/01 02:46:39;;;;;;;17.63;13.30;;;11.10;99.90;;;;;;5044697;28;20297;-79
2023/04/01 02:49:06;;;;;;;17.05;14.25;;;11.00;99.90;;;;;;5049992;28;20197;-80
2023/04/01 02:51:33;;;;;;;16.35;13.77;;;11.10;99.90;;;;;;5043180;28;20295;-80
2023/04/01 02:54:00;;;;;;;18.35;13.10;;;11.00;99.90;;;;;;5046433;28;20207;-80
2023/04/01 02:56:27;;;;;;;24.00;12.80;;;11.10;99.90;;;;;;5050818;28;20271;-80
2023/04/01 02:58:54;;;;;;;19.30;13.80;;;11.00;99.90;;;;;;5047131;28;20739;-80
2023/04/01 03:01:22;;;;;;;15.10;12.73;;;11.00;99.90;;;;;;5046588;28;20298;-80
2023/04/01 03:03:49;;;;;;;16.30;12.70;;;11.00;99.90;;;;;;5028365;28;20305;-80
2023/04/01 03:06:17;;;;;;;18.02;12.80;;;11.00;99.90;;;;;;5037746;28;20613;-78
2023/04/01 03:08:45;;;;;;;14.18;11.43;;;11.00;99.90;;;;;;5050978;28;20756;-80
2023/04/01 03:11:13;;;;;;;14.45;11.65;;;11.00;99.90;;;;;;5058700;28;20218;-79
2023/04/01 03:13:40;;;;;;;15.68;13.07;;;11.00;99.90;;;;;;5056791;28;20250;-79
2023/04/01 03:16:07;;;;;;;14.05;11.70;;;11.00;99.90;;;;;;5060149;28;20237;-78
2023/04/01 03:18:35;;;;;;;13.23;11.45;;;11.00;99.90;;;;;;5055314;28;20276;-78
2023/04/01 03:21:14;;;;;;;17.83;11.25;;;11.00;99.90;;;;;;5058970;28;20271;-80
2023/04/01 03:23:41;;;;;;;17.05;10.85;;;11.00;99.90;;;;;;5045153;28;20215;-81
2023/04/01 03:26:08;;;;;;;14.07;11.43;;;11.00;99.90;;;;;;5048017;28;20227;-81
2023/04/01 03:28:35;;;;;;;14.75;12.23;;;11.00;99.90;;;;;;5052914;28;20219;-79
2023/04/01 03:31:02;;;;;;;11.77;10.57;;;10.90;99.90;;;;;;5050108;28;20239;-78
2023/04/01 03:33:29;;;;;;;13.85;12.00;;;11.00;99.90;;;;;;5044542;28;20212;-79
2023/04/01 03:35:57;;;;;;;16.13;10.57;;;11.00;99.90;;;;;;5043871;28;20246;-79
2023/04/01 03:38:24;;;;;;;12.68;9.20;;;10.90;99.90;;;;;;5055536;28;20264;-80
2023/04/01 03:40:51;;;;;;;10.70;9.32;;;11.00;99.90;;;;;;5048341;28;20198;-79
2023/04/01 03:43:17;;;;;;;14.90;10.65;;;10.90;99.90;;;;;;5053365;28;20289;-79
2023/04/01 03:45:45;;;;;;;14.50;10.32;;;10.90;99.90;;;;;;5058795;28;20244;-80
2023/04/01 03:48:12;;;;;;;12.73;9.65;;;10.80;99.90;;;;;;5048271;28;20263;-79
2023/04/01 03:50:39;;;;;;;12.43;9.27;;;10.80;99.90;;;;;;5046371;28;20312;-78
2023/04/01 03:53:07;;;;;;;9.60;8.32;;;10.80;99.90;;;;;;5048915;28;20206;-79
2023/04/01 03:55:34;;;;;;;14.73;9.50;;;10.80;99.90;;;;;;5050368;28;20248;-79
2023/04/01 03:58:02;;;;;;;14.18;9.43;;;10.80;99.90;;;;;;5046146;28;20205;-80
2023/04/01 04:00:29;;;;;;;10.02;9.00;;;10.80;99.90;;;;;;5041598;28;20237;-80
2023/04/01 04:02:56;;;;;;;11.70;8.77;;;10.80;99.90;;;;;;5043579;28;20212;-80
2023/04/01 04:05:23;;;;;;;11.15;8.90;;;10.90;99.90;;;;;;5048245;28;20238;-80
2023/04/01 04:07:50;;;;;;;9.80;8.75;;;10.90;99.90;;;;;;5045462;28;20274;-79
2023/04/01 04:10:19;;;;;;;11.48;8.20;;;10.90;99.90;;;;;;5043345;28;20636;-78
2023/04/01 04:12:46;;;;;;;10.80;9.70;;;10.90;99.90;;;;;;5035733;28;20233;-80
2023/04/01 04:15:13;;;;;;;10.75;8.27;;;10.90;99.90;;;;;;5043317;28;20256;-78
2023/04/01 04:17:40;;;;;;;10.90;8.20;;;10.90;99.90;;;;;;5042604;28;20235;-80
2023/04/01 04:20:08;;;;;;;13.30;9.85;;;10.90;99.90;;;;;;5040253;28;20198;-77
2023/04/01 04:22:35;;;;;;;13.02;9.57;;;10.80;99.90;;;;;;5042107;28;20244;-80
2023/04/01 04:25:02;;;;;;;9.32;8.10;;;11.00;99.90;;;;;;5041948;28;20251;-77
2023/04/01 04:27:30;;;;;;;13.65;9.55;;;10.80;99.90;;;;;;5036893;28;20282;-81
2023/04/01 04:29:57;;;;;;;13.02;10.00;;;10.80;99.90;;;;;;5036934;28;20208;-80
2023/04/01 04:32:24;;;;;;;9.30;8.25;;;10.80;99.90;;;;;;5045442;28;20311;-80
2023/04/01 04:34:51;;;;;;;13.02;9.02;;;10.70;99.90;;;;;;5040256;28;20219;-79
2023/04/01 04:37:18;;;;;;;11.85;8.73;;;10.80;99.90;;;;;;5051372;28;20281;-80
2023/04/01 04:39:45;;;;;;;9.77;8.50;;;10.80;99.90;;;;;;5041269;28;20287;-80
2023/04/01 04:42:11;;;;;;;13.63;8.65;;;10.80;99.90;;;;;;5044823;28;20221;-79
2023/04/01 04:44:40;;;;;;;10.15;8.27;;;10.70;99.90;;;;;;5044813;28;20229;-81
2023/04/01 04:47:07;;;;;;;10.23;8.05;;;10.70;99.90;;;;;;5054030;28;20673;-78
2023/04/01 04:49:33;;;;;;;9.25;8.10;;;10.90;99.90;;;;;;5046516;28;20204;-79
2023/04/01 04:52:00;;;;;;;10.20;8.05;;;10.80;99.90;;;;;;5045418;28;20311;-79
2023/04/01 04:54:27;;;;;;;11.20;8.70;;;10.80;99.90;;;;;;5037893;28;20662;-79
2023/04/01 04:56:54;;;;;;;14.27;10.43;;;10.90;99.90;;;;;;5047548;28;20195;-79
2023/04/01 04:59:21;;;;;;;10.85;7.78;;;10.90;99.90;;;;;;5039455;28;20208;-79
2023/04/01 05:01:49;;;;;;;9.68;7.45;;;11.00;99.90;;;;;;5049131;28;20270;-78
2023/04/01 05:04:16;;;;;;;9.02;7.05;;;10.90;99.90;;;;;;5039065;28;20202;-80
2023/04/01 05:06:44;;;;;;;9.20;7.18;;;11.00;99.90;;;;;;5045277;28;20261;-77
2023/04/01 05:09:11;;;;;;;10.00;8.00;;;10.90;99.90;;;;;;5052100;28;20207;-78
2023/04/01 05:11:38;;;;;;;14.15;8.60;;;11.00;99.90;;;;;;5061245;28;20241;-77
2023/04/01 05:14:05;;;;;;;10.65;7.90;;;11.00;99.90;;;;;;5050493;28;20242;-78
2023/04/01 05:16:32;;;;;;;11.52;7.80;;;11.00;99.90;;;;;;5047117;28;20213;-79
2023/04/01 05:19:00;;;;;;;8.43;7.13;;;11.00;99.90;;;;;;5055137;28;20215;-77
2023/04/01 05:21:27;;;;;;;7.65;6.43;;;11.10;99.90;;;;;;5056334;28;20247;-78
2023/04/01 05:23:54;;;;;;;9.27;8.07;;;11.10;99.90;;;;;;5056169;28;20185;-80
2023/04/01 05:26:20;;;;;;;11.45;6.40;;;11.10;99.90;;;;;;5056487;28;20258;-78
2023/04/01 05:28:47;;;;;;;7.85;6.13;;;11.00;99.90;;;;;;5046694;28;20213;-79
2023/04/01 05:31:14;;;;;;;9.18;6.65;;;11.10;99.90;;;;;;5050376;28;20222;-79
2023/04/01 05:33:41;;;;;;;10.50;7.60;;;11.10;99.90;;;;;;5054387;28;20193;-79
2023/04/01 05:36:11;;;;;;;8.35;5.93;;;11.10;99.90;;;;;;5049259;28;20221;-79
2023/04/01 05:38:38;;;;;;;6.03;5.43;;;11.10;99.90;;;;;;5056097;28;20225;-79
2023/04/01 05:41:05;;;;;;;6.85;5.57;;;11.10;99.90;;;;;;5054692;28;20228;-78
2023/04/01 05:43:32;;;;;;;8.20;6.40;;;11.10;99.90;;;;;;5060755;28;20265;-79
2023/04/01 05:45:59;;;;;;;6.95;5.90;;;11.20;99.90;;;;;;5049623;28;20241;-78
2023/04/01 05:48:26;;;;;;;7.40;5.57;;;11.10;99.90;;;;;;5050315;28;20202;-77
2023/04/01 05:50:53;;;;;;;6.93;5.88;;;11.10;99.90;;;;;;5045139;28;20212;-79
2023/04/01 05:53:22;;;;;;;9.70;6.25;;;11.20;99.90;;;;;;5051549;28;20215;-80
2023/04/01 05:55:48;;;;;;;8.40;5.90;;;11.20;99.90;;;;;;5068789;28;20601;-80
2023/04/01 05:58:15;;;;;;;8.73;5.13;;;11.20;99.90;;;;;;5065527;28;20225;-78
2023/04/01 06:00:42;;;;;;;6.10;5.50;;;11.30;99.90;;;;;;5049991;28;20211;-77
2023/04/01 06:03:09;;;;;;;6.55;5.68;;;11.20;99.90;;;;;;5057955;28;20264;-79
2023/04/01 06:05:41;;;;;;;6.43;5.38;;;11.20;99.90;;;;;;5057182;28;20247;-79
2023/04/01 06:08:11;;;;;;;8.70;6.63;;;11.20;99.90;;;;;;5049142;28;20213;-78
2023/04/01 06:10:51;;;;;;;6.05;5.43;;;11.20;99.90;;;;;;5062287;28;20230;-78
2023/04/01 06:13:27;;;;;;;8.52;5.90;;;11.10;99.90;;;;;;5055426;28;20266;-78
2023/04/01 06:16:03;;;;;;;9.10;5.45;;;11.20;99.90;;;;;;5053483;28;20295;-80
2023/04/01 06:19:01;;;;;;;5.90;5.28;;;11.20;99.90;;;;;;5055274;28;20245;-78
2023/04/01 06:21:53;;;;;;;5.90;5.35;;;11.20;99.90;;;;;;5057527;28;20218;-78
2023/04/01 06:24:47;;;;;;;6.55;5.20;;;11.20;99.90;;;;;;5065289;28;20199;-80
2023/04/01 06:27:25;;;;;;;7.32;6.00;;;11.20;99.90;;;;;;5058969;28;20217;-80
2023/04/01 06:30:01;;;;;;;5.70;5.20;;;11.10;99.90;;;;;;5063388;28;20232;-78
2023/04/01 06:32:48;;;;;;;6.07;5.47;;;11.20;99.90;;;;;;5047880;28;20225;-79
2023/04/01 06:35:35;;;;;;;5.03;4.28;;;11.20;99.90;;;;;;5064405;28;20227;-80
2023/04/01 06:38:42;;;;;;;4.97;4.47;;;11.20;99.90;;;;;;5053235;28;20201;-79
2023/04/01 06:41:43;;;;;;;6.32;4.45;;;11.20;99.90;;;;;;5058735;28;20208;-82
2023/04/01 06:44:19;;;;;;;6.13;5.03;;;11.10;99.90;;;;;;5055510;28;20273;-80
2023/04/01 06:46:48;;;;;;;5.75;5.07;;;11.10;99.90;;;;;;5054470;28;20205;-80
2023/04/01 06:49:42;;;;;;;4.38;3.97;;;11.10;99.90;;;;;;5062085;28;20189;-81
2023/04/01 06:52:16;;;;;;;4.85;4.35;;;11.20;99.90;;;;;;5056964;28;20218;-78
2023/04/01 06:54:48;;;;;;;4.43;3.75;;;11.30;99.90;;;;;;5049905;28;20237;-80
2023/04/01 06:57:24;;;;;;;5.70;3.78;;;11.30;99.90;;;;;;5047762;28;20198;-80
2023/04/01 06:59:55;;;;;;;8.25;4.80;;;11.40;99.90;;;;;;5046285;28;20192;-81
2023/04/01 07:02:30;;;;;;;5.90;4.40;;;11.40;99.90;;;;;;5063379;28;20265;-79
2023/04/01 07:05:00;;;;;;;4.95;3.80;;;11.50;99.90;;;;;;5052785;28;20221;-80
2023/04/01 07:07:35;;;;;;;4.93;3.78;;;11.50;99.90;;;;;;5051735;28;20209;-80
2023/04/01 07:10:07;;;;;;;4.95;3.35;;;11.50;99.90;;;;;;5060668;28;20201;-80
2023/04/01 07:12:45;;;;;;;4.43;3.70;;;11.50;99.90;;;;;;5054051;28;20219;-82
2023/04/01 07:15:20;;;;;;;3.72;3.42;;;11.60;99.90;;;;;;5058531;28;20219;-80
2023/04/01 07:17:52;;;;;;;4.55;3.67;;;11.60;99.90;;;;;;5060133;28;20227;-79
2023/04/01 07:20:23;;;;;;;8.65;4.10;;;11.60;99.90;;;;;;5063262;28;20289;-81
2023/04/01 07:22:52;;;;;;;4.57;3.67;;;11.70;99.90;;;;;;5063561;28;20190;-81
2023/04/01 07:25:25;;;;;;;3.58;3.28;;;11.80;99.90;;;;;;5040472;28;20218;-80
2023/04/01 07:27:54;;;;;;;4.20;3.80;;;11.80;99.90;;;;;;5051691;28;20546;-80
2023/04/01 07:30:25;;;;;;;4.00;3.70;;;11.70;99.90;;;;;;5036659;28;20231;-80
2023/04/01 07:32:59;;;;;;;5.35;3.75;;;11.80;99.90;;;;;;5050094;28;20221;-82
2023/04/01 07:35:31;;;;;;;4.00;3.50;;;11.80;99.90;;;;;;5046396;28;20826;-81
2023/04/01 07:38:12;;;;;;;6.28;4.30;;;11.90;99.90;;;;;;5041058;28;20210;-77
2023/04/01 07:40:48;;;;;;;3.88;3.58;;;11.80;99.90;;;;;;5045803;28;20228;-79
2023/04/01 07:43:42;;;;;;;3.70;3.40;;;11.80;99.90;;;;;;5047426;28;20263;-80
2023/04/01 07:46:25;;;;;;;4.22;3.83;;;11.80;99.90;;;;;;5045933;28;20226;-80
2023/04/01 07:48:57;;;;;;;2.92;2.72;;;11.80;99.90;;;;;;5044756;28;20563;-80
2023/04/01 07:51:30;;;;;;;3.95;3.55;;;11.70;99.90;;;;;;5038119;28;20249;-81
2023/04/01 07:54:04;;;;;;;3.67;2.88;;;11.70;99.90;;;;;;5034890;28;20630;-81
2023/04/01 07:56:36;;;;;;;3.88;3.45;;;11.70;99.90;;;;;;5054152;28;20694;-80
2023/04/01 07:59:09;;;;;;;6.80;3.55;;;11.70;99.90;;;;;;5053574;28;20215;-81
2023/04/01 08:01:43;;;;;;;3.28;2.95;;;11.80;99.90;;;;;;5044037;28;20227;-81
2023/04/01 08:04:26;;;;;;;3.50;3.20;;;11.90;99.90;;;;;;5045225;28;20206;-81
2023/04/01 08:07:01;;;;;;;6.60;3.38;;;12.00;99.90;;;;;;5042682;28;20625;-80
2023/04/01 08:09:41;;;;;;;3.58;3.28;;;12.10;99.90;;;;;;5040127;28;20274;-80
2023/04/01 08:12:21;;;;;;;4.10;2.80;;;12.00;99.90;;;;;;5043543;28;20227;-81
2023/04/01 08:15:04;;;;;;;3.00;2.80;;;12.00;99.90;;;;;;5053195;28;20226;-80
2023/04/01 08:17:42;;;;;;;2.95;2.40;;;12.10;99.90;;;;;;5047553;28;20213;-80
2023/04/01 08:20:26;;;;;;;4.40;2.80;;;12.20;99.90;;;;;;5041668;28;20204;-80
2023/04/01 08:23:01;;;;;;;2.85;2.45;;;12.30;99.90;;;;;;5037458;28;20238;-81
2023/04/01 08:25:31;;;;;;;4.25;2.72;;;12.30;99.90;;;;;;5042852;28;20234;-81
2023/04/01 08:28:01;;;;;;;2.58;2.38;;;12.40;99.90;;;;;;5047147;28;20285;-81
2023/04/01 08:30:39;;;;;;;2.80;2.40;;;12.50;99.90;;;;;;5032563;28;20222;-79
2023/04/01 08:33:15;;;;;;;5.43;2.53;;;12.50;99.90;;;;;;5039830;28;20278;-79
2023/04/01 08:35:47;;;;;;;4.60;3.05;;;12.60;99.90;;;;;;5053931;28;20290;-78
2023/04/01 08:38:20;;;;;;;2.33;2.05;;;12.70;99.90;;;;;;5038362;28;20257;-79
2023/04/01 08:40:59;;;;;;;5.40;2.40;;;12.70;99.90;;;;;;5045290;28;20249;-80
2023/04/01 08:43:59;;;;;;;2.53;1.98;;;12.70;99.90;;;;;;5041986;28;20204;-80
2023/04/01 08:46:49;;;;;;;1.92;1.83;;;12.80;99.90;;;;;;5042363;28;20287;-81
2023/04/01 08:49:48;;;;;;;2.28;1.90;;;12.90;99.90;;;;;;5049684;28;20195;-80
2023/04/01 08:52:28;;;;;;;3.58;2.08;;;12.90;99.90;;;;;;4994044;28;20231;-81
2023/04/01 08:55:18;;;;;;;2.67;1.80;;;12.90;99.90;;;;;;5047751;28;20311;-77
2023/04/01 08:57:57;;;;;;;3.55;2.40;;;12.90;99.90;;;;;;5031553;28;20231;-82
2023/04/01 09:00:31;;;;;;;3.40;2.17;;;12.90;99.90;;;;;;5034400;28;20207;-81
2023/04/01 09:03:20;;;;;;;4.35;2.38;;;13.00;99.90;;;;;;5048088;28;20219;-79
2023/04/01 09:06:26;;;;;;;4.30;3.03;;;12.80;99.90;;;;;;5059094;28;20231;-80
2023/04/01 09:09:25;;;;;;;2.97;1.92;;;12.80;99.90;;;;;;5050271;28;20203;-82
2023/04/01 09:12:26;;;;;;;1.92;1.70;;;12.90;99.90;;;;;;5056684;28;20712;-80
2023/04/01 09:15:24;;;;;;;3.67;2.95;;;12.90;99.90;;;;;;5036957;28;20257;-82
2023/04/01 09:18:15;;;;;;;2.35;1.85;;;12.80;99.90;;;;;;5016491;28;20207;-80
2023/04/01 09:20:57;;;;;;;1.83;1.73;;;12.80;99.90;;;;;;5030650;28;20282;-79
2023/04/01 09:23:57;;;;;;;4.18;1.75;;;13.00;99.90;;;;;;5044256;28;20192;-79
2023/04/01 09:26:35;;;;;;;2.90;1.70;;;13.10;99.90;;;;;;5017403;28;20605;-81
2023/04/01 09:29:16;;;;;;;4.82;1.98;;;13.40;99.90;;;;;;5053198;28;20215;-82
2023/04/01 09:32:01;;;;;;;3.90;1.98;;;13.80;99.90;;;;;;5054462;28;20286;-79
2023/04/01 09:34:53;;;;;;;3.33;2.80;;;14.20;99.90;;;;;;5051109;28;20195;-81
2023/04/01 09:37:24;;;;;;;1.67;1.27;;;14.30;99.90;;;;;;5045486;28;20281;-80
2023/04/01 09:40:10;;;;;;;2.97;2.67;;;14.50;99.90;;;;;;5039228;28;20221;-81
2023/04/01 09:42:44;;;;;;;1.75;1.65;;;14.60;99.90;;;;;;5047452;28;20256;-80
2023/04/01 09:45:24;;;;;;;2.08;1.60;;;14.70;99.90;;;;;;5034440;28;20315;-82
2023/04/01 09:48:03;;;;;;;3.47;1.77;;;14.80;99.90;;;;;;5042516;28;20283;-80
2023/04/01 09:50:37;;;;;;;1.90;1.80;;;15.10;99.90;;;;;;5055856;28;20193;-83
2023/04/01 09:53:15;;;;;;;2.28;1.35;;;15.00;99.90;;;;;;5053328;28;20500;-81
2023/04/01 09:56:18;;;;;;;1.80;1.35;;;15.00;99.90;;;;;;5049055;28;20773;-81
2023/04/01 09:59:23;;;;;;;2.72;1.13;;;14.90;99.90;;;;;;5033391;28;20216;-80
2023/04/01 10:02:16;;;;;;;1.90;1.35;;;15.10;99.90;;;;;;4991810;28;20213;-80
2023/04/01 10:05:14;;;;;;;1.75;1.60;;;15.00;99.90;;;;;;5049251;28;20227;-80
2023/04/01 10:08:13;;;;;;;1.40;1.30;;;15.00;99.90;;;;;;5047268;28;20195;-81
2023/04/01 10:11:03;;;;;;;2.30;1.92;;;15.00;99.90;;;;;;5043093;28;20237;-80
2023/04/01 10:14:13;;;;;;;2.03;1.42;;;14.80;99.90;;;;;;5045103;28;20209;-81
2023/04/01 10:17:08;;;;;;;2.75;1.55;;;14.50;99.90;;;;;;5052789;28;20320;-81
2023/04/01 10:20:00;;;;;;;1.20;1.10;;;14.40;99.90;;;;;;5048483;28;20283;-82
2023/04/01 10:22:47;;;;;;;3.58;0.90;;;14.10;99.90;;;;;;5053793;28;20581;-82
2023/04/01 10:25:38;;;;;;;0.75;0.60;;;13.40;99.90;;;;;;5062397;28;20227;-81
2023/04/01 10:29:02;;;;;;;0.75;0.60;;;12.80;99.90;;;;;;5051710;28;20283;-81
2023/04/01 10:32:04;;;;;;;0.90;0.70;;;12.30;99.90;;;;;;5048324;28;20607;-82
2023/04/01 10:34:58;;;;;;;7.72;4.38;;;11.90;99.90;;;;;;5047762;28;20230;-82
2023/04/01 10:37:44;;;;;;;1.27;0.60;;;11.70;99.90;;;;;;5047193;28;20199;-81
2023/04/01 10:40:47;;;;;;;0.80;0.70;;;11.60;99.90;;;;;;5051631;28;20209;-81
2023/04/01 10:43:46;;;;;;;0.95;0.85;;;11.30;99.90;;;;;;5048867;28;20196;-82
2023/04/01 10:46:52;;;;;;;1.00;0.90;;;11.20;99.90;;;;;;5032309;28;20312;-80
2023/04/01 10:49:38;;;;;;;1.25;0.88;;;11.00;99.90;;;;;;5036843;28;20208;-81
2023/04/01 10:53:03;;;;;;;1.10;0.70;;;10.90;99.90;;;;;;5045991;28;20207;-81
2023/04/01 10:56:10;;;;;;;1.35;0.88;;;10.80;99.90;;;;;;5043155;28;20231;-80
2023/04/01 10:59:23;;;;;;;0.73;0.60;;;10.90;99.90;;;;;;5038985;28;20217;-81
2023/04/01 11:02:29;;;;;;;0.85;0.68;;;11.10;99.90;;;;;;5040725;28;20638;-80
2023/04/01 11:05:33;;;;;;;0.80;0.80;;;11.10;99.90;;;;;;5021106;28;20270;-80
2023/04/01 11:08:28;;;;;;;0.90;0.65;;;11.30;99.90;;;;;;5061358;28;20211;-81
2023/04/01 11:11:45;;;;;;;1.90;0.70;;;11.40;99.90;;;;;;5042274;28;20245;-81
2023/04/01 11:14:44;;;;;;;4.30;0.80;;;11.40;99.90;;;;;;5045896;28;20218;-78
2023/04/01 11:17:53;;;;;;;1.55;0.90;;;11.50;99.90;;;;;;5046485;28;20206;-79
2023/04/01 11:21:00;;;;;;;1.10;0.90;;;11.70;99.90;;;;;;4967423;28;20280;-80
2023/04/01 11:23:48;;;;;;;0.90;0.70;;;11.60;99.90;;;;;;5049159;28;20304;-79
2023/04/01 11:26:30;;;;;;;1.40;1.00;;;11.40;99.90;;;;;;5063083;28;20311;-81
2023/04/01 11:29:11;;;;;;;1.42;0.90;;;11.20;99.90;;;;;;5061981;28;20225;-81
2023/04/01 11:31:46;;;;;;;1.05;0.90;;;11.00;99.90;;;;;;5049037;28;20185;-80
2023/04/01 11:34:29;;;;;;;0.80;0.80;;;10.90;99.90;;;;;;5061384;28;20215;-82
2023/04/01 11:37:10;;;;;;;1.15;1.05;;;10.80;99.90;;;;;;5055674;28;20205;-79
2023/04/01 11:39:44;;;;;;;1.10;1.00;;;10.80;99.90;;;;;;5045713;28;20215;-81
2023/04/01 11:42:21;;;;;;;2.13;1.00;;;10.70;99.90;;;;;;5033686;28;20268;-79
2023/04/01 11:44:56;;;;;;;1.00;0.90;;;10.70;99.90;;;;;;5039300;28;20222;-82
2023/04/01 11:47:45;;;;;;;0.95;0.85;;;10.60;99.90;;;;;;5043944;28;20200;-80
2023/04/01 11:50:21;;;;;;;1.00;0.80;;;10.50;99.90;;;;;;5055739;28;20269;-81
2023/04/01 11:53:22;;;;;;;1.05;0.95;;;10.40;99.90;;;;;;5054250;28;20210;-80
2023/04/01 11:56:04;;;;;;;1.38;1.20;;;10.30;99.90;;;;;;5044513;28;20232;-80
2023/04/01 11:58:58;;;;;;;2.95;1.20;;;10.10;99.90;;;;;;5041004;28;20259;-82
2023/04/01 12:01:33;;;;;;;1.38;1.17;;;10.10;99.90;;;;;;5053836;28;20260;-79
2023/04/01 12:04:39;;;;;;;1.55;1.15;;;10.10;99.90;;;;;;5045151;28;20199;-78
2023/04/01 12:07:20;;;;;;;1.40;1.17;;;10.20;99.90;;;;;;5046621;28;20277;-78
2023/04/01 12:10:00;;;;;;;1.60;1.50;;;10.30;99.90;;;;;;5030355;28;20241;-82
2023/04/01 12:12:37;;;;;;;1.20;1.10;;;10.50;99.90;;;;;;5053470;28;20207;-82
2023/04/01 12:15:18;;;;;;;2.05;1.10;;;10.60;99.90;;;;;;5043014;28;20279;-80
2023/04/01 12:17:51;;;;;;;1.00;0.85;;;10.70;99.90;;;;;;5044275;28;20211;-80
2023/04/01 12:20:34;;;;;;;2.60;1.40;;;10.70;99.90;;;;;;5038769;28;20263;-81
2023/04/01 12:23:13;;;;;;;1.42;1.33;;;10.60;99.90;;;;;;5044420;28;20204;-80
2023/04/01 12:26:11;;;;;;;1.35;1.17;;;10.60;99.90;;;;;;5049628;28;20300;-80
2023/04/01 12:28:49;;;;;;;1.50;1.30;;;10.70;99.90;;;;;;5047847;28;20281;-82
2023/04/01 12:31:36;;;;;;;1.35;1.20;;;10.60;99.90;;;;;;5047095;28;20196;-80
2023/04/01 12:34:40;;;;;;;1.80;1.13;;;10.50;99.90;;;;;;5052447;28;20284;-79
2023/04/01 12:37:13;;;;;;;1.65;1.10;;;10.40;99.90;;;;;;5045827;28;20268;-79
2023/04/01 12:39:56;;;;;;;2.65;1.30;;;10.40;99.90;;;;;;5060978;28;20223;-80
2023/04/01 12:42:47;;;;;;;1.30;1.20;;;10.40;99.90;;;;;;5049830;28;20256;-80
2023/04/01 12:45:33;;;;;;;3.78;1.40;;;10.40;99.90;;;;;;5052455;28;20216;-79
2023/04/01 12:48:25;;;;;;;2.10;1.13;;;10.50;99.90;;;;;;5045487;28;20223;-83
2023/04/01 12:51:23;;;;;;;2.13;1.30;;;10.40;99.90;;;;;;5042595;28;20235;-82
2023/04/01 12:57:11;;;;;;;1.10;1.00;;;10.40;99.90;;;;;;5046635;28;20200;-87
2023/04/01 13:00:13;;;;;;;1.10;0.80;;;10.30;99.90;;;;;;5056966;28;20234;-84
2023/04/01 13:02:54;;;;;;;2.35;0.98;;;10.20;99.90;;;;;;5044258;28;20209;-88
2023/04/01 13:06:08;;;;;;;1.00;0.82;;;10.20;99.90;;;;;;5033669;28;20228;-87
2023/04/01 13:08:44;;;;;;;0.98;0.88;;;10.30;99.90;;;;;;5047798;28;20301;-83
2023/04/01 13:11:20;;;;;;;1.60;1.05;;;10.20;99.90;;;;;;5040193;28;20228;-84
2023/04/01 13:14:25;;;;;;;1.20;0.90;;;10.20;99.90;;;;;;5042575;28;20211;-84
2023/04/01 13:16:58;;;;;;;3.90;1.52;;;10.30;99.90;;;;;;5041789;28;20238;-84
2023/04/01 13:19:33;;;;;;;1.30;1.10;;;10.40;99.90;;;;;;5032769;28;20211;-81
2023/04/01 13:22:07;;;;;;;1.25;0.98;;;10.30;99.90;;;;;;5036150;28;20210;-83
2023/04/01 13:24:48;;;;;;;0.98;0.80;;;10.30;99.90;;;;;;5041459;28;20205;-82
2023/04/01 13:27:22;;;;;;;1.38;0.85;;;10.40;99.90;;;;;;5043431;28;20184;-83
2023/04/01 13:30:02;;;;;;;1.10;0.70;;;10.30;99.90;;;;;;5041169;28;20207;-81
2023/04/01 13:32:43;;;;;;;0.95;0.70;;;10.20;99.90;;;;;;5039972;28;20200;-84
2023/04/01 13:35:27;;;;;;;1.42;0.98;;;10.20;99.90;;;;;;5039118;28;20230;-86